KSPW/SPW METAR and TAF weather

Enter ICAO airport designator
Station Type Date Time Source
KSPW METAR 2021/09/27 05:53 UTC NOAA

KSPW 270553Z AUTO 00000KT 10SM CLR 13/11 A2972 RMK AO2 SLP057 T01330106 10267 20128 403280100 57000


Station Type Date Time Source
KSPW Decoded METAR 2021/09/27 05:53 UTC NOAA

SPENCER MUNICIPAL AIRPORT, IA, United States (KSPW) 43-10N 95-13W 403M
Sep 27, 2021 - 01:53 AM EDT / 2021.09.27 0553 UTC
Wind: Calm:0
Visibility: 10 mile(s):0
Sky conditions: clear
Temperature: 55.9 F (13.3 C)
Dew Point: 51.1 F (10.6 C)
Relative Humidity: 83%
Pressure (altimeter): 29.72 in. Hg (1006 hPa)
Pressure tendency: 0.00 inches (0.0 hPa) lower than three hours ago
ob: KSPW 270553Z AUTO 00000KT 10SM CLR 13/11 A2972 RMK AO2 SLP057 T01330106 10267 20128 403280100 57000
cycle: 6

Station Type Date Time Source
KSPW TAF UTC NOAA

Error!

Example: see airport list